sensor_id;sensor_type;location;lat;lon;timestamp;P1;durP1;ratioP1;P2;durP2;ratioP2
17763;SDS011;22245;52.832;13.816;2023-04-21T00:00:21;14.33;;;9.77;;
17763;SDS011;22245;52.832;13.816;2023-04-21T00:03:43;16.70;;;10.80;;
17763;SDS011;22245;52.832;13.816;2023-04-21T00:07:07;16.53;;;9.93;;
17763;SDS011;22245;52.832;13.816;2023-04-21T00:10:29;14.03;;;9.73;;
17763;SDS011;22245;52.832;13.816;2023-04-21T00:13:52;14.40;;;10.20;;
17763;SDS011;22245;52.832;13.816;2023-04-21T00:17:15;16.07;;;10.07;;
17763;SDS011;22245;52.832;13.816;2023-04-21T00:20:36;14.50;;;9.77;;
17763;SDS011;22245;52.832;13.816;2023-04-21T00:23:59;17.90;;;9.77;;
17763;SDS011;22245;52.832;13.816;2023-04-21T00:27:20;13.57;;;8.10;;
17763;SDS011;22245;52.832;13.816;2023-04-21T00:30:45;13.57;;;8.53;;
17763;SDS011;22245;52.832;13.816;2023-04-21T00:34:07;12.37;;;8.43;;
17763;SDS011;22245;52.832;13.816;2023-04-21T00:37:29;16.50;;;9.40;;
17763;SDS011;22245;52.832;13.816;2023-04-21T00:40:50;15.17;;;8.03;;
17763;SDS011;22245;52.832;13.816;2023-04-21T00:44:12;15.33;;;8.13;;
17763;SDS011;22245;52.832;13.816;2023-04-21T00:47:35;13.83;;;8.67;;
17763;SDS011;22245;52.832;13.816;2023-04-21T00:50:57;13.53;;;8.60;;
17763;SDS011;22245;52.832;13.816;2023-04-21T00:54:19;14.20;;;8.13;;
17763;SDS011;22245;52.832;13.816;2023-04-21T00:57:45;14.20;;;7.83;;
17763;SDS011;22245;52.832;13.816;2023-04-21T01:01:08;13.17;;;8.23;;
17763;SDS011;22245;52.832;13.816;2023-04-21T01:04:31;14.37;;;8.37;;
17763;SDS011;22245;52.832;13.816;2023-04-21T01:07:57;14.17;;;8.20;;
17763;SDS011;22245;52.832;13.816;2023-04-21T01:11:21;14.90;;;8.83;;
17763;SDS011;22245;52.832;13.816;2023-04-21T01:14:43;15.17;;;8.53;;
17763;SDS011;22245;52.832;13.816;2023-04-21T01:18:04;16.83;;;9.40;;
17763;SDS011;22245;52.832;13.816;2023-04-21T01:21:28;14.20;;;9.30;;
17763;SDS011;22245;52.832;13.816;2023-04-21T01:24:54;13.10;;;8.73;;
17763;SDS011;22245;52.832;13.816;2023-04-21T01:28:19;17.67;;;9.10;;
17763;SDS011;22245;52.832;13.816;2023-04-21T01:31:42;20.73;;;9.13;;
17763;SDS011;22245;52.832;13.816;2023-04-21T01:35:07;14.57;;;9.23;;
17763;SDS011;22245;52.832;13.816;2023-04-21T01:38:30;16.07;;;8.10;;
17763;SDS011;22245;52.832;13.816;2023-04-21T01:41:53;14.00;;;8.80;;
17763;SDS011;22245;52.832;13.816;2023-04-21T01:45:17;12.80;;;9.27;;
17763;SDS011;22245;52.832;13.816;2023-04-21T01:48:39;14.30;;;7.97;;
17763;SDS011;22245;52.832;13.816;2023-04-21T01:52:01;15.83;;;8.80;;
17763;SDS011;22245;52.832;13.816;2023-04-21T01:55:23;15.37;;;8.63;;
17763;SDS011;22245;52.832;13.816;2023-04-21T01:58:46;19.67;;;8.90;;
17763;SDS011;22245;52.832;13.816;2023-04-21T02:02:08;15.17;;;9.27;;
17763;SDS011;22245;52.832;13.816;2023-04-21T02:05:30;17.17;;;8.67;;
17763;SDS011;22245;52.832;13.816;2023-04-21T02:08:52;13.70;;;8.87;;
17763;SDS011;22245;52.832;13.816;2023-04-21T02:12:14;14.47;;;8.80;;
17763;SDS011;22245;52.832;13.816;2023-04-21T02:15:37;17.13;;;9.30;;
17763;SDS011;22245;52.832;13.816;2023-04-21T02:18:59;18.20;;;9.10;;
17763;SDS011;22245;52.832;13.816;2023-04-21T02:22:21;15.87;;;9.67;;
17763;SDS011;22245;52.832;13.816;2023-04-21T02:25:43;16.03;;;8.87;;
17763;SDS011;22245;52.832;13.816;2023-04-21T02:29:04;13.63;;;9.53;;
17763;SDS011;22245;52.832;13.816;2023-04-21T02:32:28;20.77;;;9.37;;
17763;SDS011;22245;52.832;13.816;2023-04-21T02:35:50;14.30;;;8.70;;
17763;SDS011;22245;52.832;13.816;2023-04-21T02:39:12;15.30;;;9.23;;
17763;SDS011;22245;52.832;13.816;2023-04-21T02:42:34;15.87;;;9.63;;
17763;SDS011;22245;52.832;13.816;2023-04-21T02:45:56;15.80;;;9.13;;
17763;SDS011;22245;52.832;13.816;2023-04-21T02:49:20;15.67;;;9.43;;
17763;SDS011;22245;52.832;13.816;2023-04-21T02:52:42;15.03;;;8.87;;
17763;SDS011;22245;52.832;13.816;2023-04-21T02:56:04;14.83;;;8.77;;
17763;SDS011;22245;52.832;13.816;2023-04-21T02:59:27;14.70;;;9.30;;
17763;SDS011;22245;52.832;13.816;2023-04-21T03:02:52;13.97;;;9.53;;
17763;SDS011;22245;52.832;13.816;2023-04-21T03:06:16;16.17;;;9.33;;
17763;SDS011;22245;52.832;13.816;2023-04-21T03:09:37;16.70;;;9.50;;
17763;SDS011;22245;52.832;13.816;2023-04-21T03:12:59;17.17;;;9.50;;
17763;SDS011;22245;52.832;13.816;2023-04-21T03:16:24;16.90;;;9.10;;
17763;SDS011;22245;52.832;13.816;2023-04-21T03:19:46;14.93;;;9.47;;
17763;SDS011;22245;52.832;13.816;2023-04-21T03:23:09;15.30;;;9.87;;
17763;SDS011;22245;52.832;13.816;2023-04-21T03:26:31;18.83;;;11.00;;
17763;SDS011;22245;52.832;13.816;2023-04-21T03:29:52;14.13;;;9.77;;
17763;SDS011;22245;52.832;13.816;2023-04-21T03:33:14;18.93;;;10.53;;
17763;SDS011;22245;52.832;13.816;2023-04-21T03:36:37;15.93;;;9.80;;
17763;SDS011;22245;52.832;13.816;2023-04-21T03:40:00;19.80;;;10.50;;
17763;SDS011;22245;52.832;13.816;2023-04-21T03:43:22;14.07;;;9.43;;
17763;SDS011;22245;52.832;13.816;2023-04-21T03:46:44;16.47;;;9.93;;
17763;SDS011;22245;52.832;13.816;2023-04-21T03:50:06;17.73;;;10.87;;
17763;SDS011;22245;52.832;13.816;2023-04-21T03:53:28;23.47;;;12.77;;
17763;SDS011;22245;52.832;13.816;2023-04-21T03:56:52;22.83;;;10.87;;
17763;SDS011;22245;52.832;13.816;2023-04-21T04:00:13;21.50;;;12.07;;
17763;SDS011;22245;52.832;13.816;2023-04-21T04:03:35;19.27;;;11.50;;
17763;SDS011;22245;52.832;13.816;2023-04-21T04:06:57;17.93;;;11.13;;
17763;SDS011;22245;52.832;13.816;2023-04-21T04:10:19;18.40;;;11.17;;
17763;SDS011;22245;52.832;13.816;2023-04-21T04:13:42;19.67;;;11.10;;
17763;SDS011;22245;52.832;13.816;2023-04-21T04:17:04;21.10;;;11.03;;
17763;SDS011;22245;52.832;13.816;2023-04-21T04:20:26;22.57;;;11.77;;
17763;SDS011;22245;52.832;13.816;2023-04-21T04:23:48;18.87;;;11.70;;
17763;SDS011;22245;52.832;13.816;2023-04-21T04:27:10;17.57;;;11.60;;
17763;SDS011;22245;52.832;13.816;2023-04-21T04:30:35;17.70;;;11.30;;
17763;SDS011;22245;52.832;13.816;2023-04-21T04:33:58;18.77;;;11.47;;
17763;SDS011;22245;52.832;13.816;2023-04-21T04:37:20;14.90;;;10.63;;
17763;SDS011;22245;52.832;13.816;2023-04-21T04:40:42;21.10;;;11.90;;
17763;SDS011;22245;52.832;13.816;2023-04-21T04:44:04;20.83;;;12.37;;
17763;SDS011;22245;52.832;13.816;2023-04-21T04:47:28;24.50;;;12.67;;
17763;SDS011;22245;52.832;13.816;2023-04-21T04:50:50;20.67;;;12.37;;
17763;SDS011;22245;52.832;13.816;2023-04-21T04:54:12;23.37;;;12.90;;
17763;SDS011;22245;52.832;13.816;2023-04-21T04:57:33;20.43;;;12.03;;
17763;SDS011;22245;52.832;13.816;2023-04-21T05:00:55;20.33;;;12.33;;
17763;SDS011;22245;52.832;13.816;2023-04-21T05:04:18;23.93;;;13.23;;
17763;SDS011;22245;52.832;13.816;2023-04-21T05:07:41;19.37;;;13.00;;
17763;SDS011;22245;52.832;13.816;2023-04-21T05:11:02;19.53;;;12.97;;
17763;SDS011;22245;52.832;13.816;2023-04-21T05:14:24;25.60;;;14.57;;
17763;SDS011;22245;52.832;13.816;2023-04-21T05:17:47;23.63;;;13.90;;
17763;SDS011;22245;52.832;13.816;2023-04-21T05:21:11;23.53;;;13.63;;
17763;SDS011;22245;52.832;13.816;2023-04-21T05:24:33;22.60;;;14.33;;
17763;SDS011;22245;52.832;13.816;2023-04-21T05:27:56;25.23;;;14.60;;
17763;SDS011;22245;52.832;13.816;2023-04-21T05:31:19;24.47;;;14.30;;
17763;SDS011;22245;52.832;13.816;2023-04-21T05:34:40;20.63;;;13.50;;
17763;SDS011;22245;52.832;13.816;2023-04-21T05:38:03;25.37;;;14.77;;
17763;SDS011;22245;52.832;13.816;2023-04-21T05:41:26;20.73;;;13.03;;
17763;SDS011;22245;52.832;13.816;2023-04-21T05:44:48;23.27;;;12.97;;
17763;SDS011;22245;52.832;13.816;2023-04-21T05:48:10;17.03;;;11.37;;
17763;SDS011;22245;52.832;13.816;2023-04-21T05:51:32;19.97;;;12.23;;
17763;SDS011;22245;52.832;13.816;2023-04-21T05:54:56;20.53;;;12.40;;
17763;SDS011;22245;52.832;13.816;2023-04-21T05:58:18;19.13;;;12.10;;
17763;SDS011;22245;52.832;13.816;2023-04-21T06:01:40;18.70;;;11.60;;
17763;SDS011;22245;52.832;13.816;2023-04-21T06:05:02;22.37;;;12.87;;
17763;SDS011;22245;52.832;13.816;2023-04-21T06:08:25;19.47;;;11.77;;
17763;SDS011;22245;52.832;13.816;2023-04-21T06:11:48;16.57;;;11.13;;
17763;SDS011;22245;52.832;13.816;2023-04-21T06:15:10;21.10;;;13.40;;
17763;SDS011;22245;52.832;13.816;2023-04-21T06:18:32;19.00;;;12.00;;
17763;SDS011;22245;52.832;13.816;2023-04-21T06:21:55;18.97;;;11.77;;
17763;SDS011;22245;52.832;13.816;2023-04-21T06:25:17;18.13;;;10.77;;
17763;SDS011;22245;52.832;13.816;2023-04-21T06:28:40;23.63;;;11.00;;
17763;SDS011;22245;52.832;13.816;2023-04-21T06:32:02;17.50;;;11.20;;
17763;SDS011;22245;52.832;13.816;2023-04-21T06:35:24;21.67;;;11.40;;
17763;SDS011;22245;52.832;13.816;2023-04-21T06:38:45;19.70;;;12.07;;
17763;SDS011;22245;52.832;13.816;2023-04-21T06:42:07;19.53;;;11.03;;
17763;SDS011;22245;52.832;13.816;2023-04-21T06:45:36;19.10;;;11.30;;
17763;SDS011;22245;52.832;13.816;2023-04-21T06:48:59;15.63;;;10.65;;
17763;SDS011;22245;52.832;13.816;2023-04-21T06:52:20;13.57;;;9.55;;
17763;SDS011;22245;52.832;13.816;2023-04-21T06:55:42;16.38;;;10.35;;
17763;SDS011;22245;52.832;13.816;2023-04-21T06:59:04;14.00;;;10.10;;
17763;SDS011;22245;52.832;13.816;2023-04-21T07:02:27;15.65;;;9.73;;
17763;SDS011;22245;52.832;13.816;2023-04-21T07:05:49;16.20;;;10.15;;
17763;SDS011;22245;52.832;13.816;2023-04-21T07:09:11;13.98;;;10.32;;
17763;SDS011;22245;52.832;13.816;2023-04-21T07:12:33;15.43;;;9.95;;
17763;SDS011;22245;52.832;13.816;2023-04-21T07:15:55;17.88;;;10.45;;
17763;SDS011;22245;52.832;13.816;2023-04-21T07:19:18;15.63;;;9.88;;
17763;SDS011;22245;52.832;13.816;2023-04-21T07:22:40;15.90;;;10.43;;
17763;SDS011;22245;52.832;13.816;2023-04-21T07:26:02;17.65;;;10.40;;
17763;SDS011;22245;52.832;13.816;2023-04-21T07:29:23;17.08;;;10.48;;
17763;SDS011;22245;52.832;13.816;2023-04-21T07:32:45;15.68;;;10.48;;
17763;SDS011;22245;52.832;13.816;2023-04-21T07:36:09;16.60;;;9.32;;
17763;SDS011;22245;52.832;13.816;2023-04-21T07:39:31;20.95;;;8.95;;
17763;SDS011;22245;52.832;13.816;2023-04-21T07:42:52;16.70;;;10.85;;
17763;SDS011;22245;52.832;13.816;2023-04-21T07:46:14;16.98;;;9.55;;
17763;SDS011;22245;52.832;13.816;2023-04-21T07:49:36;14.52;;;9.95;;
17763;SDS011;22245;52.832;13.816;2023-04-21T07:52:59;17.10;;;9.50;;
17763;SDS011;22245;52.832;13.816;2023-04-21T07:56:20;19.98;;;10.45;;
17763;SDS011;22245;52.832;13.816;2023-04-21T07:59:42;15.43;;;9.50;;
17763;SDS011;22245;52.832;13.816;2023-04-21T08:03:05;14.10;;;9.40;;
17763;SDS011;22245;52.832;13.816;2023-04-21T08:06:27;16.70;;;9.75;;
17763;SDS011;22245;52.832;13.816;2023-04-21T08:09:51;16.17;;;9.52;;
17763;SDS011;22245;52.832;13.816;2023-04-21T08:13:13;14.60;;;9.73;;
17763;SDS011;22245;52.832;13.816;2023-04-21T08:16:34;15.60;;;9.45;;
17763;SDS011;22245;52.832;13.816;2023-04-21T08:19:56;15.93;;;9.30;;
17763;SDS011;22245;52.832;13.816;2023-04-21T08:23:19;13.70;;;9.77;;
17763;SDS011;22245;52.832;13.816;2023-04-21T08:26:42;15.35;;;9.30;;
17763;SDS011;22245;52.832;13.816;2023-04-21T08:30:05;18.25;;;9.95;;
17763;SDS011;22245;52.832;13.816;2023-04-21T08:33:28;13.77;;;9.27;;
17763;SDS011;22245;52.832;13.816;2023-04-21T08:36:49;14.32;;;9.60;;
17763;SDS011;22245;52.832;13.816;2023-04-21T08:40:12;13.20;;;9.07;;
17763;SDS011;22245;52.832;13.816;2023-04-21T08:43:35;14.27;;;9.35;;
17763;SDS011;22245;52.832;13.816;2023-04-21T08:46:57;15.70;;;9.30;;
17763;SDS011;22245;52.832;13.816;2023-04-21T08:50:20;16.73;;;9.30;;
17763;SDS011;22245;52.832;13.816;2023-04-21T08:53:48;12.98;;;8.88;;
17763;SDS011;22245;52.832;13.816;2023-04-21T08:57:11;16.55;;;9.00;;
17763;SDS011;22245;52.832;13.816;2023-04-21T09:00:37;12.77;;;8.57;;
17763;SDS011;22245;52.832;13.816;2023-04-21T09:04:16;13.43;;;9.73;;
17763;SDS011;22245;52.832;13.816;2023-04-21T09:07:38;14.48;;;8.65;;
17763;SDS011;22245;52.832;13.816;2023-04-21T09:11:00;11.00;;;8.32;;
17763;SDS011;22245;52.832;13.816;2023-04-21T09:14:27;10.73;;;8.25;;
17763;SDS011;22245;52.832;13.816;2023-04-21T09:17:54;13.43;;;8.23;;
17763;SDS011;22245;52.832;13.816;2023-04-21T09:21:17;16.17;;;8.27;;
17763;SDS011;22245;52.832;13.816;2023-04-21T09:24:43;12.30;;;8.18;;
17763;SDS011;22245;52.832;13.816;2023-04-21T09:28:06;14.30;;;7.97;;
17763;SDS011;22245;52.832;13.816;2023-04-21T09:31:29;10.82;;;7.88;;
17763;SDS011;22245;52.832;13.816;2023-04-21T09:34:59;10.82;;;8.00;;
17763;SDS011;22245;52.832;13.816;2023-04-21T09:38:21;11.60;;;7.80;;
17763;SDS011;22245;52.832;13.816;2023-04-21T09:41:43;11.80;;;8.18;;
17763;SDS011;22245;52.832;13.816;2023-04-21T09:45:06;11.23;;;8.02;;
17763;SDS011;22245;52.832;13.816;2023-04-21T09:48:49;13.10;;;7.35;;
17763;SDS011;22245;52.832;13.816;2023-04-21T09:52:14;11.60;;;8.10;;
17763;SDS011;22245;52.832;13.816;2023-04-21T09:55:38;12.43;;;8.18;;
17763;SDS011;22245;52.832;13.816;2023-04-21T09:59:02;11.85;;;7.10;;
17763;SDS011;22245;52.832;13.816;2023-04-21T10:02:29;10.15;;;6.65;;
17763;SDS011;22245;52.832;13.816;2023-04-21T10:05:52;12.25;;;7.13;;
17763;SDS011;22245;52.832;13.816;2023-04-21T10:09:15;8.27;;;6.75;;
17763;SDS011;22245;52.832;13.816;2023-04-21T10:12:40;11.32;;;6.63;;
17763;SDS011;22245;52.832;13.816;2023-04-21T10:16:03;11.48;;;6.50;;
17763;SDS011;22245;52.832;13.816;2023-04-21T10:19:27;11.00;;;7.00;;
17763;SDS011;22245;52.832;13.816;2023-04-21T10:22:51;9.60;;;6.30;;
17763;SDS011;22245;52.832;13.816;2023-04-21T10:26:21;9.40;;;5.88;;
17763;SDS011;22245;52.832;13.816;2023-04-21T10:29:43;7.72;;;5.60;;
17763;SDS011;22245;52.832;13.816;2023-04-21T10:33:16;12.55;;;6.65;;
17763;SDS011;22245;52.832;13.816;2023-04-21T10:36:41;9.43;;;6.05;;
17763;SDS011;22245;52.832;13.816;2023-04-21T10:44:10;7.43;;;5.55;;
17763;SDS011;22245;52.832;13.816;2023-04-21T10:51:13;10.25;;;6.10;;
17763;SDS011;22245;52.832;13.816;2023-04-21T10:54:37;9.80;;;6.30;;
17763;SDS011;22245;52.832;13.816;2023-04-21T10:58:05;9.05;;;5.80;;
17763;SDS011;22245;52.832;13.816;2023-04-21T11:01:30;7.90;;;5.95;;
17763;SDS011;22245;52.832;13.816;2023-04-21T11:04:52;7.35;;;5.55;;
17763;SDS011;22245;52.832;13.816;2023-04-21T11:08:16;10.35;;;6.13;;
17763;SDS011;22245;52.832;13.816;2023-04-21T11:11:37;9.63;;;6.00;;
17763;SDS011;22245;52.832;13.816;2023-04-21T11:15:02;8.73;;;6.25;;
17763;SDS011;22245;52.832;13.816;2023-04-21T11:18:37;12.02;;;6.13;;
17763;SDS011;22245;52.832;13.816;2023-04-21T11:22:00;10.82;;;6.30;;
17763;SDS011;22245;52.832;13.816;2023-04-21T11:25:24;12.93;;;6.15;;
17763;SDS011;22245;52.832;13.816;2023-04-21T11:28:46;9.05;;;5.93;;
17763;SDS011;22245;52.832;13.816;2023-04-21T11:32:09;10.70;;;6.20;;
17763;SDS011;22245;52.832;13.816;2023-04-21T11:35:32;9.05;;;6.57;;
17763;SDS011;22245;52.832;13.816;2023-04-21T11:38:54;8.88;;;5.75;;
17763;SDS011;22245;52.832;13.816;2023-04-21T11:42:19;9.98;;;6.13;;
17763;SDS011;22245;52.832;13.816;2023-04-21T11:45:42;8.57;;;6.03;;
17763;SDS011;22245;52.832;13.816;2023-04-21T11:49:04;8.10;;;6.10;;
17763;SDS011;22245;52.832;13.816;2023-04-21T11:52:29;9.85;;;5.80;;
17763;SDS011;22245;52.832;13.816;2023-04-21T11:55:52;10.02;;;6.35;;
17763;SDS011;22245;52.832;13.816;2023-04-21T11:59:16;12.93;;;6.50;;
17763;SDS011;22245;52.832;13.816;2023-04-21T12:02:52;9.85;;;5.88;;
17763;SDS011;22245;52.832;13.816;2023-04-21T12:06:18;8.93;;;6.03;;
17763;SDS011;22245;52.832;13.816;2023-04-21T12:09:42;10.68;;;6.28;;
17763;SDS011;22245;52.832;13.816;2023-04-21T12:13:04;9.25;;;6.00;;
17763;SDS011;22245;52.832;13.816;2023-04-21T12:16:26;11.68;;;6.10;;
17763;SDS011;22245;52.832;13.816;2023-04-21T12:19:49;7.75;;;5.80;;
17763;SDS011;22245;52.832;13.816;2023-04-21T12:23:11;10.60;;;5.63;;
17763;SDS011;22245;52.832;13.816;2023-04-21T12:26:34;7.43;;;5.68;;
17763;SDS011;22245;52.832;13.816;2023-04-21T12:29:56;9.07;;;6.07;;
17763;SDS011;22245;52.832;13.816;2023-04-21T12:33:18;10.73;;;5.72;;
17763;SDS011;22245;52.832;13.816;2023-04-21T12:36:40;12.57;;;5.97;;
17763;SDS011;22245;52.832;13.816;2023-04-21T12:40:02;12.50;;;6.80;;
17763;SDS011;22245;52.832;13.816;2023-04-21T12:43:27;7.72;;;5.97;;
17763;SDS011;22245;52.832;13.816;2023-04-21T12:46:49;7.72;;;5.70;;
17763;SDS011;22245;52.832;13.816;2023-04-21T12:50:11;8.25;;;5.50;;
17763;SDS011;22245;52.832;13.816;2023-04-21T12:53:33;9.20;;;6.15;;
17763;SDS011;22245;52.832;13.816;2023-04-21T12:56:55;6.38;;;5.70;;
17763;SDS011;22245;52.832;13.816;2023-04-21T13:00:20;13.25;;;6.05;;
17763;SDS011;22245;52.832;13.816;2023-04-21T13:03:42;10.95;;;6.13;;
17763;SDS011;22245;52.832;13.816;2023-04-21T13:07:04;7.30;;;5.65;;
17763;SDS011;22245;52.832;13.816;2023-04-21T13:10:26;6.90;;;5.43;;
17763;SDS011;22245;52.832;13.816;2023-04-21T13:13:48;8.30;;;6.05;;
17763;SDS011;22245;52.832;13.816;2023-04-21T13:17:12;9.40;;;6.43;;
17763;SDS011;22245;52.832;13.816;2023-04-21T13:20:35;8.25;;;5.88;;
17763;SDS011;22245;52.832;13.816;2023-04-21T13:23:57;10.40;;;5.93;;
17763;SDS011;22245;52.832;13.816;2023-04-21T13:27:19;7.93;;;6.05;;
17763;SDS011;22245;52.832;13.816;2023-04-21T13:30:41;6.53;;;4.85;;
17763;SDS011;22245;52.832;13.816;2023-04-21T13:34:05;7.15;;;5.13;;
17763;SDS011;22245;52.832;13.816;2023-04-21T13:37:27;7.35;;;5.53;;
17763;SDS011;22245;52.832;13.816;2023-04-21T13:40:49;9.23;;;5.50;;
17763;SDS011;22245;52.832;13.816;2023-04-21T13:44:10;12.35;;;5.65;;
17763;SDS011;22245;52.832;13.816;2023-04-21T13:47:32;7.05;;;5.70;;
17763;SDS011;22245;52.832;13.816;2023-04-21T13:50:56;7.60;;;5.40;;
17763;SDS011;22245;52.832;13.816;2023-04-21T13:54:17;7.55;;;4.85;;
17763;SDS011;22245;52.832;13.816;2023-04-21T13:57:39;7.90;;;5.25;;
17763;SDS011;22245;52.832;13.816;2023-04-21T14:01:02;10.63;;;5.38;;
17763;SDS011;22245;52.832;13.816;2023-04-21T14:04:23;7.18;;;4.53;;
17763;SDS011;22245;52.832;13.816;2023-04-21T14:07:47;5.78;;;5.10;;
17763;SDS011;22245;52.832;13.816;2023-04-21T14:11:09;9.02;;;5.00;;
17763;SDS011;22245;52.832;13.816;2023-04-21T14:14:30;7.10;;;4.75;;
17763;SDS011;22245;52.832;13.816;2023-04-21T14:17:58;8.43;;;4.18;;
17763;SDS011;22245;52.832;13.816;2023-04-21T14:21:20;6.78;;;4.30;;
17763;SDS011;22245;52.832;13.816;2023-04-21T14:24:43;8.25;;;4.68;;
17763;SDS011;22245;52.832;13.816;2023-04-21T14:28:05;5.03;;;4.25;;
17763;SDS011;22245;52.832;13.816;2023-04-21T14:31:27;5.65;;;4.22;;
17763;SDS011;22245;52.832;13.816;2023-04-21T14:34:49;8.02;;;4.32;;
17763;SDS011;22245;52.832;13.816;2023-04-21T14:38:12;6.03;;;4.10;;
17763;SDS011;22245;52.832;13.816;2023-04-21T14:41:35;4.32;;;3.60;;
17763;SDS011;22245;52.832;13.816;2023-04-21T14:44:57;6.35;;;3.97;;
17763;SDS011;22245;52.832;13.816;2023-04-21T14:48:19;4.57;;;3.75;;
17763;SDS011;22245;52.832;13.816;2023-04-21T14:51:41;6.68;;;3.90;;
17763;SDS011;22245;52.832;13.816;2023-04-21T14:55:05;7.47;;;4.13;;
17763;SDS011;22245;52.832;13.816;2023-04-21T14:58:29;5.20;;;3.55;;
17763;SDS011;22245;52.832;13.816;2023-04-21T15:01:50;5.53;;;3.40;;
17763;SDS011;22245;52.832;13.816;2023-04-21T15:05:12;6.05;;;3.63;;
17763;SDS011;22245;52.832;13.816;2023-04-21T15:08:34;5.28;;;3.55;;
17763;SDS011;22245;52.832;13.816;2023-04-21T15:11:56;7.35;;;4.22;;
17763;SDS011;22245;52.832;13.816;2023-04-21T15:15:19;5.72;;;3.95;;
17763;SDS011;22245;52.832;13.816;2023-04-21T15:18:41;5.50;;;3.83;;
17763;SDS011;22245;52.832;13.816;2023-04-21T15:22:03;5.00;;;3.92;;
17763;SDS011;22245;52.832;13.816;2023-04-21T15:25:26;8.57;;;4.13;;
17763;SDS011;22245;52.832;13.816;2023-04-21T15:28:48;7.20;;;4.00;;
17763;SDS011;22245;52.832;13.816;2023-04-21T15:32:11;5.30;;;4.45;;
17763;SDS011;22245;52.832;13.816;2023-04-21T15:35:33;7.57;;;3.85;;
17763;SDS011;22245;52.832;13.816;2023-04-21T15:38:55;6.32;;;3.55;;
17763;SDS011;22245;52.832;13.816;2023-04-21T15:42:17;8.35;;;3.63;;
17763;SDS011;22245;52.832;13.816;2023-04-21T15:45:39;4.18;;;3.47;;
17763;SDS011;22245;52.832;13.816;2023-04-21T15:49:03;4.75;;;3.63;;
17763;SDS011;22245;52.832;13.816;2023-04-21T15:52:25;8.43;;;3.83;;
17763;SDS011;22245;52.832;13.816;2023-04-21T15:55:49;7.20;;;3.63;;
17763;SDS011;22245;52.832;13.816;2023-04-21T15:59:11;5.95;;;3.60;;
17763;SDS011;22245;52.832;13.816;2023-04-21T16:02:33;6.50;;;3.50;;
17763;SDS011;22245;52.832;13.816;2023-04-21T16:05:56;7.88;;;3.65;;
17763;SDS011;22245;52.832;13.816;2023-04-21T16:09:18;7.53;;;3.88;;
17763;SDS011;22245;52.832;13.816;2023-04-21T16:12:40;7.60;;;3.63;;
17763;SDS011;22245;52.832;13.816;2023-04-21T16:16:04;5.40;;;4.10;;
17763;SDS011;22245;52.832;13.816;2023-04-21T16:19:26;6.53;;;3.53;;
17763;SDS011;22245;52.832;13.816;2023-04-21T16:22:49;8.35;;;4.30;;
17763;SDS011;22245;52.832;13.816;2023-04-21T16:26:11;7.80;;;4.07;;
17763;SDS011;22245;52.832;13.816;2023-04-21T16:29:33;5.93;;;3.97;;
17763;SDS011;22245;52.832;13.816;2023-04-21T16:32:55;6.07;;;3.50;;
17763;SDS011;22245;52.832;13.816;2023-04-21T16:36:17;5.82;;;3.60;;
17763;SDS011;22245;52.832;13.816;2023-04-21T16:39:41;9.63;;;3.53;;
17763;SDS011;22245;52.832;13.816;2023-04-21T16:43:03;16.17;;;3.78;;
17763;SDS011;22245;52.832;13.816;2023-04-21T16:46:25;7.50;;;3.17;;
17763;SDS011;22245;52.832;13.816;2023-04-21T16:49:47;7.00;;;3.53;;
17763;SDS011;22245;52.832;13.816;2023-04-21T16:53:09;5.43;;;3.45;;
17763;SDS011;22245;52.832;13.816;2023-04-21T16:56:32;5.90;;;3.55;;
17763;SDS011;22245;52.832;13.816;2023-04-21T16:59:54;4.32;;;3.22;;
17763;SDS011;22245;52.832;13.816;2023-04-21T17:03:17;5.93;;;3.42;;
17763;SDS011;22245;52.832;13.816;2023-04-21T17:06:39;7.13;;;4.00;;
17763;SDS011;22245;52.832;13.816;2023-04-21T17:10:00;5.88;;;3.60;;
17763;SDS011;22245;52.832;13.816;2023-04-21T17:13:23;6.05;;;3.65;;
17763;SDS011;22245;52.832;13.816;2023-04-21T17:16:45;4.50;;;3.30;;
17763;SDS011;22245;52.832;13.816;2023-04-21T17:20:08;8.05;;;3.90;;
17763;SDS011;22245;52.832;13.816;2023-04-21T17:23:31;6.00;;;3.50;;
17763;SDS011;22245;52.832;13.816;2023-04-21T17:26:53;5.10;;;3.75;;
17763;SDS011;22245;52.832;13.816;2023-04-21T17:30:17;6.40;;;3.65;;
17763;SDS011;22245;52.832;13.816;2023-04-21T17:33:40;7.47;;;4.57;;
17763;SDS011;22245;52.832;13.816;2023-04-21T17:37:02;7.65;;;3.90;;
17763;SDS011;22245;52.832;13.816;2023-04-21T17:40:25;4.80;;;3.65;;
17763;SDS011;22245;52.832;13.816;2023-04-21T17:43:47;5.32;;;3.97;;
17763;SDS011;22245;52.832;13.816;2023-04-21T17:47:10;7.18;;;4.72;;
17763;SDS011;22245;52.832;13.816;2023-04-21T17:50:32;6.00;;;4.47;;
17763;SDS011;22245;52.832;13.816;2023-04-21T17:53:53;8.90;;;4.60;;
17763;SDS011;22245;52.832;13.816;2023-04-21T17:57:15;7.20;;;3.97;;
17763;SDS011;22245;52.832;13.816;2023-04-21T18:00:38;5.65;;;4.10;;
17763;SDS011;22245;52.832;13.816;2023-04-21T18:04:02;9.23;;;4.78;;
17763;SDS011;22245;52.832;13.816;2023-04-21T18:07:24;9.00;;;4.50;;
17763;SDS011;22245;52.832;13.816;2023-04-21T18:10:46;7.05;;;4.53;;
17763;SDS011;22245;52.832;13.816;2023-04-21T18:14:08;6.05;;;4.60;;
17763;SDS011;22245;52.832;13.816;2023-04-21T18:17:29;8.35;;;4.43;;
17763;SDS011;22245;52.832;13.816;2023-04-21T18:20:53;6.45;;;4.80;;
17763;SDS011;22245;52.832;13.816;2023-04-21T18:24:15;6.47;;;5.15;;
17763;SDS011;22245;52.832;13.816;2023-04-21T18:27:37;8.40;;;5.85;;
17763;SDS011;22245;52.832;13.816;2023-04-21T18:30:59;12.40;;;7.70;;
17763;SDS011;22245;52.832;13.816;2023-04-21T18:34:22;17.52;;;10.00;;
17763;SDS011;22245;52.832;13.816;2023-04-21T18:37:46;17.77;;;10.25;;
17763;SDS011;22245;52.832;13.816;2023-04-21T18:41:08;14.20;;;10.10;;
17763;SDS011;22245;52.832;13.816;2023-04-21T18:44:30;15.07;;;9.77;;
17763;SDS011;22245;52.832;13.816;2023-04-21T18:47:52;12.32;;;8.70;;
17763;SDS011;22245;52.832;13.816;2023-04-21T18:51:13;10.93;;;7.03;;
17763;SDS011;22245;52.832;13.816;2023-04-21T18:54:37;10.88;;;6.32;;
17763;SDS011;22245;52.832;13.816;2023-04-21T18:57:59;9.38;;;6.32;;
17763;SDS011;22245;52.832;13.816;2023-04-21T19:01:21;9.13;;;6.13;;
17763;SDS011;22245;52.832;13.816;2023-04-21T19:04:42;10.82;;;6.47;;
17763;SDS011;22245;52.832;13.816;2023-04-21T19:08:04;17.15;;;8.90;;
17763;SDS011;22245;52.832;13.816;2023-04-21T19:11:30;14.70;;;8.52;;
17763;SDS011;22245;52.832;13.816;2023-04-21T19:14:52;15.45;;;8.77;;
17763;SDS011;22245;52.832;13.816;2023-04-21T19:18:14;14.10;;;8.65;;
17763;SDS011;22245;52.832;13.816;2023-04-21T19:21:35;19.80;;;11.23;;
17763;SDS011;22245;52.832;13.816;2023-04-21T19:24:56;21.75;;;10.60;;
17763;SDS011;22245;52.832;13.816;2023-04-21T19:28:19;13.23;;;10.20;;
17763;SDS011;22245;52.832;13.816;2023-04-21T19:31:41;20.33;;;10.27;;
17763;SDS011;22245;52.832;13.816;2023-04-21T19:35:03;15.98;;;10.18;;
17763;SDS011;22245;52.832;13.816;2023-04-21T19:38:26;19.02;;;10.57;;
17763;SDS011;22245;52.832;13.816;2023-04-21T19:41:48;17.08;;;9.35;;
17763;SDS011;22245;52.832;13.816;2023-04-21T19:45:11;14.93;;;9.65;;
17763;SDS011;22245;52.832;13.816;2023-04-21T19:48:33;17.55;;;9.88;;
17763;SDS011;22245;52.832;13.816;2023-04-21T19:51:56;12.85;;;9.65;;
17763;SDS011;22245;52.832;13.816;2023-04-21T19:55:17;19.60;;;10.32;;